createdAt,value
2023-04-17T00:01:43.930Z,98520.13
2023-04-17T00:04:10.740Z,98521.16
2023-04-17T00:06:37.528Z,98520.53
2023-04-17T00:09:03.867Z,98521.69
2023-04-17T00:11:30.478Z,98521.09
2023-04-17T00:13:56.912Z,98519.88
2023-04-17T00:16:23.332Z,98519.31
2023-04-17T00:18:49.637Z,98522.78
2023-04-17T00:21:16.012Z,98519.09
2023-04-17T00:23:42.298Z,98517.47
2023-04-17T00:26:08.593Z,98525.47
2023-04-17T00:28:35.084Z,98522.34
2023-04-17T00:31:01.375Z,98515.63
2023-04-17T00:33:27.724Z,98515.22
2023-04-17T00:35:54.028Z,98511.13
2023-04-17T00:38:20.482Z,98510.94
2023-04-17T00:40:46.763Z,98512.16
2023-04-17T00:43:13.095Z,98498.84
2023-04-17T00:45:39.674Z,98502.09
2023-04-17T00:48:06.868Z,98508.81
2023-04-17T00:50:33.727Z,98508.41
2023-04-17T00:53:00.645Z,98508.19
2023-04-17T00:55:28.785Z,98502.44
2023-04-17T00:57:56.320Z,98505.09
2023-04-17T01:00:22.583Z,98502.75
2023-04-17T01:02:49.038Z,98499.97
2023-04-17T01:05:15.433Z,98500.78
2023-04-17T01:07:41.829Z,98502.44
2023-04-17T01:10:09.411Z,98500.38
2023-04-17T01:12:35.727Z,98493.41
2023-04-17T01:15:02.005Z,98497.09
2023-04-17T01:17:28.344Z,98499.59
2023-04-17T01:19:55.227Z,98502.66
2023-04-17T01:22:21.504Z,98506.97
2023-04-17T01:24:48.863Z,98505.72
2023-04-17T01:27:15.496Z,98498.13
2023-04-17T01:29:42.718Z,98493.03
2023-04-17T01:32:09.264Z,98497.13
2023-04-17T01:34:37.296Z,98499.34
2023-04-17T01:37:04.119Z,98499.28
2023-04-17T01:39:30.500Z,98498.66
2023-04-17T01:41:56.791Z,98493.53
2023-04-17T01:44:23.073Z,98497.03
2023-04-17T01:46:49.469Z,98497.03
2023-04-17T01:49:16.459Z,98493.53
2023-04-17T01:51:42.802Z,98499.47
2023-04-17T01:54:09.250Z,98503.78
2023-04-17T01:56:35.628Z,98496.63
2023-04-17T01:59:02.126Z,98493.97
2023-04-17T02:01:28.541Z,98496.00
2023-04-17T02:03:55.076Z,98504.25
2023-04-17T02:06:21.491Z,98504.03
2023-04-17T02:08:47.793Z,98505.81
2023-04-17T02:11:14.164Z,98504.53
2023-04-17T02:13:40.527Z,98499.47
2023-04-17T02:16:07.234Z,98502.69
2023-04-17T02:18:33.533Z,98510.47
2023-04-17T02:20:59.904Z,98499.69
2023-04-17T02:23:26.167Z,98507.72
2023-04-17T02:25:52.436Z,98508.75
2023-04-17T02:28:18.814Z,98511.56
2023-04-17T02:30:45.099Z,98511.88
2023-04-17T02:33:11.387Z,98514.31
2023-04-17T02:35:37.678Z,98515.16
2023-04-17T02:38:03.981Z,98520.56
2023-04-17T02:40:30.418Z,98507.72
2023-04-17T02:42:56.708Z,98512.16
2023-04-17T02:45:23.000Z,98512.50
2023-04-17T02:47:49.303Z,98512.97
2023-04-17T02:50:15.591Z,98513.94
2023-04-17T02:52:41.852Z,98513.22
2023-04-17T02:55:08.337Z,98511.41
2023-04-17T02:57:34.759Z,98507.91
2023-04-17T03:00:01.195Z,98511.75
2023-04-17T03:02:29.309Z,98510.38
2023-04-17T03:04:55.757Z,98508.16
2023-04-17T03:07:22.165Z,98506.94
2023-04-17T03:09:49.519Z,98504.91
2023-04-17T03:12:16.983Z,98513.31
2023-04-17T03:14:44.219Z,98508.38
2023-04-17T03:17:11.428Z,98512.84
2023-04-17T03:19:38.099Z,98516.72
2023-04-17T03:22:04.625Z,98514.47
2023-04-17T03:24:31.202Z,98510.44
2023-04-17T03:26:57.986Z,98510.84
2023-04-17T03:29:24.361Z,98520.03
2023-04-17T03:31:50.692Z,98513.25
2023-04-17T03:34:18.395Z,98518.78
2023-04-17T03:36:44.906Z,98516.75
2023-04-17T03:39:11.541Z,98520.03
2023-04-17T03:41:38.278Z,98516.56
2023-04-17T03:44:05.421Z,98524.31
2023-04-17T03:46:31.817Z,98523.50
2023-04-17T03:48:58.098Z,98529.03
2023-04-17T03:51:24.512Z,98525.13
2023-04-17T03:53:50.887Z,98520.56
2023-04-17T03:56:17.259Z,98518.44
2023-04-17T03:58:43.664Z,98521.09
2023-04-17T04:01:10.246Z,98527.69
2023-04-17T04:03:37.379Z,98521.75
2023-04-17T04:06:03.993Z,98531.03
2023-04-17T04:08:30.303Z,98526.75
2023-04-17T04:10:56.751Z,98533.72
2023-04-17T04:13:23.161Z,98529.66
2023-04-17T04:15:49.599Z,98534.13
2023-04-17T04:18:15.921Z,98533.94
2023-04-17T04:20:42.200Z,98533.13
2023-04-17T04:23:08.586Z,98542.75
2023-04-17T04:25:34.997Z,98535.78
2023-04-17T04:28:01.271Z,98541.28
2023-04-17T04:30:27.581Z,98543.53
2023-04-17T04:32:53.982Z,98548.84
2023-04-17T04:35:20.297Z,98542.06
2023-04-17T04:37:46.562Z,98540.66
2023-04-17T04:40:13.286Z,98534.53
2023-04-17T04:42:39.596Z,98537.22
2023-04-17T04:45:06.523Z,98537.22
2023-04-17T04:47:32.897Z,98540.28
2023-04-17T04:49:59.184Z,98540.47
2023-04-17T04:52:25.794Z,98539.22
2023-04-17T04:54:52.738Z,98544.53
2023-04-17T04:57:19.038Z,98547.00
2023-04-17T04:59:45.461Z,98548.44
2023-04-17T05:02:11.851Z,98549.97
2023-04-17T05:04:38.378Z,98550.38
2023-04-17T05:07:04.825Z,98555.50
2023-04-17T05:09:32.258Z,98550.59
2023-04-17T05:11:58.560Z,98561.78
2023-04-17T05:14:24.886Z,98554.06
2023-04-17T05:16:51.234Z,98558.16
2023-04-17T05:19:17.793Z,98558.16
2023-04-17T05:21:44.100Z,98569.63
2023-04-17T05:24:10.376Z,98564.53
2023-04-17T05:26:36.674Z,98566.41
2023-04-17T05:29:03.126Z,98575.41
2023-04-17T05:31:29.499Z,98567.22
2023-04-17T05:33:55.931Z,98574.00
2023-04-17T05:36:22.359Z,98572.63
2023-04-17T05:38:48.920Z,98572.63
2023-04-17T05:41:15.201Z,98576.66
2023-04-17T05:43:41.690Z,98580.75
2023-04-17T05:46:08.036Z,98577.63
2023-04-17T05:48:34.329Z,98581.56
2023-04-17T05:51:00.809Z,98580.59
2023-04-17T05:53:27.188Z,98574.63
2023-04-17T05:55:53.603Z,98580.41
2023-04-17T05:58:23.713Z,98577.53
2023-04-17T06:00:50.720Z,98575.50
2023-04-17T06:03:18.214Z,98583.25
2023-04-17T06:05:44.901Z,98580.19
2023-04-17T06:08:11.177Z,98584.13
2023-04-17T06:10:37.566Z,98583.41
2023-04-17T06:13:03.841Z,98593.66
2023-04-17T06:15:30.133Z,98594.50
2023-04-17T06:17:56.476Z,98594.19
2023-04-17T06:20:22.777Z,98591.31
2023-04-17T06:22:49.055Z,98595.00
2023-04-17T06:25:15.498Z,98595.84
2023-04-17T06:27:41.890Z,98594.69
2023-04-17T06:30:08.709Z,98599.34
2023-04-17T06:32:35.031Z,98597.03
2023-04-17T06:35:01.458Z,98606.28
2023-04-17T06:37:27.765Z,98602.47
2023-04-17T06:39:54.080Z,98604.50
2023-04-17T06:42:20.365Z,98606.38
2023-04-17T06:44:46.778Z,98603.31
2023-04-17T06:47:13.115Z,98599.88
2023-04-17T06:49:42.075Z,98600.28
2023-04-17T06:52:08.348Z,98599.06
2023-04-17T06:54:34.688Z,98600.91
2023-04-17T06:57:01.028Z,98605.41
2023-04-17T06:59:27.347Z,98611.78
2023-04-17T07:01:53.924Z,98604.59
2023-04-17T07:04:20.345Z,98611.56
2023-04-17T07:06:46.723Z,98611.16
2023-04-17T07:09:13.257Z,98612.03
2023-04-17T07:11:39.702Z,98605.25
2023-04-17T07:14:05.981Z,98602.81
2023-04-17T07:16:32.355Z,98610.44
2023-04-17T07:18:58.714Z,98613.94
2023-04-17T07:21:24.993Z,98606.69
2023-04-17T07:23:51.292Z,98611.44
2023-04-17T07:26:17.561Z,98613.88
2023-04-17T07:28:43.860Z,98620.44
2023-04-17T07:31:10.198Z,98610.56
2023-04-17T07:33:40.020Z,98613.41
2023-04-17T07:36:09.635Z,98619.19
2023-04-17T07:38:35.907Z,98622.47
2023-04-17T07:41:02.208Z,98622.44
2023-04-17T07:43:28.619Z,98624.31
2023-04-17T07:45:55.771Z,98627.59
2023-04-17T07:48:23.954Z,98615.31
2023-04-17T07:50:50.817Z,98624.94
2023-04-17T07:53:18.319Z,98622.94
2023-04-17T07:55:44.732Z,98635.06
2023-04-17T07:58:11.260Z,98628.91
2023-04-17T08:00:38.923Z,98633.41
2023-04-17T08:03:05.340Z,98635.28
2023-04-17T08:05:32.245Z,98633.84
2023-04-17T08:07:58.719Z,98638.97
2023-04-17T08:10:25.237Z,98639.97
2023-04-17T08:12:51.545Z,98637.72
2023-04-17T08:15:17.876Z,98645.13
2023-04-17T08:17:44.255Z,98637.94
2023-04-17T08:20:10.745Z,98650.66
2023-04-17T08:22:42.013Z,98645.72
2023-04-17T08:25:09.248Z,98644.91
2023-04-17T08:27:36.728Z,98652.28
2023-04-17T08:30:03.681Z,98653.75
2023-04-17T08:32:30.690Z,98647.75
2023-04-17T08:34:57.759Z,98651.28
2023-04-17T08:37:24.314Z,98651.91
2023-04-17T08:39:51.577Z,98652.94
2023-04-17T08:42:19.069Z,98648.97
2023-04-17T08:44:45.728Z,98650.41
2023-04-17T08:47:13.034Z,98647.06
2023-04-17T08:49:39.440Z,98647.72
2023-04-17T08:52:05.856Z,98644.66
2023-04-17T08:54:32.625Z,98648.78
2023-04-17T08:57:04.853Z,98650.81
2023-04-17T08:59:32.257Z,98652.63
2023-04-17T09:02:08.297Z,98652.88
2023-04-17T09:04:38.755Z,98655.31
2023-04-17T09:07:06.601Z,98661.50
2023-04-17T09:09:54.787Z,98654.09
2023-04-17T09:12:23.695Z,98653.69
2023-04-17T09:14:50.465Z,98650.59
2023-04-17T09:17:18.628Z,98652.81
2023-04-17T09:20:03.475Z,98650.94
2023-04-17T09:22:30.109Z,98648.94
2023-04-17T09:24:57.670Z,98650.59
2023-04-17T09:27:25.855Z,98646.66
2023-04-17T09:30:04.368Z,98655.69
2023-04-17T09:32:32.410Z,98651.09
2023-04-17T09:35:01.789Z,98648.91
2023-04-17T09:37:51.340Z,98654.69
2023-04-17T09:40:19.526Z,98654.63
2023-04-17T09:42:59.241Z,98649.00
2023-04-17T09:45:27.155Z,98644.09
2023-04-17T09:47:53.674Z,98653.38
2023-04-17T09:50:20.227Z,98648.75
2023-04-17T09:52:47.596Z,98651.06
2023-04-17T09:55:14.276Z,98649.97
2023-04-17T09:57:42.199Z,98652.63
2023-04-17T10:00:12.051Z,98643.31
2023-04-17T10:02:39.782Z,98644.72
2023-04-17T10:05:07.394Z,98640.13
2023-04-17T10:07:33.994Z,98650.63
2023-04-17T10:10:00.351Z,98648.88
2023-04-17T10:12:26.749Z,98640.00
2023-04-17T10:14:53.280Z,98643.06
2023-04-17T10:17:29.675Z,98641.66
2023-04-17T10:19:55.987Z,98648.28
2023-04-17T10:22:22.551Z,98640.03
2023-04-17T10:24:50.398Z,98641.34
2023-04-17T10:27:25.524Z,98641.19
2023-04-17T10:29:55.974Z,98641.03
2023-04-17T10:32:24.005Z,98640.00
2023-04-17T10:34:50.765Z,98638.03
2023-04-17T10:37:18.056Z,98637.00
2023-04-17T10:39:52.553Z,98639.69
2023-04-17T10:42:20.716Z,98632.47
2023-04-17T10:44:47.945Z,98643.03
2023-04-17T10:47:14.937Z,98635.47
2023-04-17T10:49:54.601Z,98640.88
2023-04-17T10:52:34.604Z,98634.00
2023-04-17T10:55:05.126Z,98628.09
2023-04-17T10:57:54.098Z,98628.16
2023-04-17T11:00:27.069Z,98624.06
2023-04-17T11:02:53.524Z,98631.66
2023-04-17T11:05:20.912Z,98627.47
2023-04-17T11:07:47.360Z,98623.22
2023-04-17T11:10:15.668Z,98617.03
2023-04-17T11:12:45.761Z,98610.81
2023-04-17T11:15:12.086Z,98607.97
2023-04-17T11:17:46.552Z,98607.03
2023-04-17T11:20:13.085Z,98605.66
2023-04-17T11:22:39.615Z,98612.34
2023-04-17T11:25:06.347Z,98598.16
2023-04-17T11:27:32.787Z,98604.94
2023-04-17T11:29:59.086Z,98611.69
2023-04-17T11:32:25.420Z,98611.44
2023-04-17T11:34:53.934Z,98604.19
2023-04-17T11:37:20.232Z,98604.78
2023-04-17T11:39:46.604Z,98610.81
2023-04-17T11:42:12.892Z,98605.59
2023-04-17T11:44:43.297Z,98607.31
2023-04-17T11:47:09.652Z,98606.69
2023-04-17T11:49:39.120Z,98604.16
2023-04-17T11:52:05.700Z,98605.66
2023-04-17T11:54:35.846Z,98610.56
2023-04-17T11:57:04.165Z,98614.59
2023-04-17T11:59:34.445Z,98600.53
2023-04-17T12:02:01.588Z,98602.72
2023-04-17T12:04:28.686Z,98601.81
2023-04-17T12:06:56.173Z,98607.16
2023-04-17T12:09:23.261Z,98590.44
2023-04-17T12:11:49.575Z,98596.72
2023-04-17T12:14:15.878Z,98602.16
2023-04-17T12:16:42.260Z,98601.63
2023-04-17T12:19:08.568Z,98600.88
2023-04-17T12:21:34.894Z,98596.78
2023-04-17T12:24:01.180Z,98595.09
2023-04-17T12:26:27.558Z,98603.56
2023-04-17T12:28:53.851Z,98603.41
2023-04-17T12:31:20.164Z,98607.50
2023-04-17T12:33:46.705Z,98608.16
2023-04-17T12:36:13.104Z,98605.44
2023-04-17T12:38:39.501Z,98598.88
2023-04-17T12:41:05.871Z,98603.56
2023-04-17T12:43:32.273Z,98601.41
2023-04-17T12:45:58.693Z,98605.13
2023-04-17T12:48:25.192Z,98597.91
2023-04-17T12:50:51.476Z,98595.63
2023-04-17T12:53:17.792Z,98598.53
2023-04-17T12:55:44.335Z,98589.84
2023-04-17T12:58:12.502Z,98579.28
2023-04-17T13:00:40.655Z,98595.44
2023-04-17T13:03:07.165Z,98585.69
2023-04-17T13:05:33.727Z,98584.59
2023-04-17T13:08:00.161Z,98582.41
2023-04-17T13:10:26.503Z,98584.44
2023-04-17T13:12:53.228Z,98587.91
2023-04-17T13:15:19.568Z,98588.69
2023-04-17T13:17:46.050Z,98588.81
2023-04-17T13:20:12.620Z,98590.41
2023-04-17T13:22:39.111Z,98580.06
2023-04-17T13:25:05.957Z,98580.88
2023-04-17T13:27:32.252Z,98581.91
2023-04-17T13:29:58.662Z,98588.78
2023-04-17T13:32:25.004Z,98584.22
2023-04-17T13:34:51.325Z,98584.06
2023-04-17T13:37:17.647Z,98574.19
2023-04-17T13:39:43.922Z,98577.94
2023-04-17T13:42:10.249Z,98584.81
2023-04-17T13:44:36.614Z,98577.34
2023-04-17T13:47:02.911Z,98579.03
2023-04-17T13:49:29.287Z,98574.81
2023-04-17T13:51:55.719Z,98575.00
2023-04-17T13:54:22.099Z,98577.44
2023-04-17T13:56:48.498Z,98576.00
2023-04-17T13:59:14.996Z,98575.03
2023-04-17T14:01:41.576Z,98570.94
2023-04-17T14:04:08.167Z,98574.06
2023-04-17T14:06:34.640Z,98565.78
2023-04-17T14:09:01.002Z,98568.22
2023-04-17T14:11:27.371Z,98569.28
2023-04-17T14:13:53.709Z,98571.09
2023-04-17T14:16:20.296Z,98562.81
2023-04-17T14:18:50.798Z,98551.84
2023-04-17T14:21:17.783Z,98563.38
2023-04-17T14:23:45.781Z,98565.78
2023-04-17T14:26:12.476Z,98554.00
2023-04-17T14:28:38.996Z,98568.72
2023-04-17T14:31:06.148Z,98567.31
2023-04-17T14:33:32.718Z,98574.72
2023-04-17T14:35:59.089Z,98561.97
2023-04-17T14:38:25.611Z,98558.59
2023-04-17T14:40:51.910Z,98569.56
2023-04-17T14:43:18.247Z,98558.78
2023-04-17T14:45:44.668Z,98562.19
2023-04-17T14:48:11.136Z,98555.28
2023-04-17T14:50:37.432Z,98557.97
2023-04-17T14:53:03.721Z,98565.13
2023-04-17T14:55:30.453Z,98554.47
2023-04-17T14:57:56.950Z,98561.22
2023-04-17T15:00:23.368Z,98562.81
2023-04-17T15:02:49.969Z,98557.59
2023-04-17T15:05:16.654Z,98564.16
2023-04-17T15:07:43.127Z,98566.59
2023-04-17T15:10:09.982Z,98562.75
2023-04-17T15:12:36.306Z,98570.06
2023-04-17T15:15:02.725Z,98553.19
2023-04-17T15:17:29.124Z,98564.50
2023-04-17T15:19:55.444Z,98565.94
2023-04-17T15:22:21.721Z,98561.25
2023-04-17T15:24:48.026Z,98561.19
2023-04-17T15:27:14.493Z,98557.41
2023-04-17T15:29:41.802Z,98564.25
2023-04-17T15:32:08.054Z,98562.41
2023-04-17T15:34:34.353Z,98558.81
2023-04-17T15:37:00.910Z,98563.19
2023-04-17T15:39:27.242Z,98561.41
2023-04-17T15:41:54.957Z,98569.47
2023-04-17T15:44:21.342Z,98566.28
2023-04-17T15:46:47.627Z,98564.84
2023-04-17T15:49:13.984Z,98567.59
2023-04-17T15:51:41.604Z,98569.06
2023-04-17T15:54:08.721Z,98578.66
2023-04-17T15:56:35.100Z,98592.75
2023-04-17T15:59:01.504Z,98592.00
2023-04-17T16:01:27.857Z,98587.28
2023-04-17T16:03:54.457Z,98584.47
2023-04-17T16:06:20.955Z,98584.03
2023-04-17T16:08:47.409Z,98591.81
2023-04-17T16:11:13.698Z,98587.47
2023-04-17T16:13:39.993Z,98591.41
2023-04-17T16:16:06.591Z,98596.50
2023-04-17T16:18:32.918Z,98591.84
2023-04-17T16:20:59.213Z,98600.03
2023-04-17T16:23:25.508Z,98594.31
2023-04-17T16:25:51.928Z,98589.94
2023-04-17T16:28:18.248Z,98594.31
2023-04-17T16:30:44.634Z,98591.75
2023-04-17T16:33:10.919Z,98594.03
2023-04-17T16:35:37.183Z,98585.66
2023-04-17T16:38:03.497Z,98588.63
2023-04-17T16:40:29.775Z,98596.28
2023-04-17T16:42:56.474Z,98598.97
2023-04-17T16:45:22.826Z,98595.75
2023-04-17T16:47:49.204Z,98594.19
2023-04-17T16:50:15.571Z,98599.84
2023-04-17T16:52:41.881Z,98606.19
2023-04-17T16:55:08.688Z,98608.47
2023-04-17T16:57:34.972Z,98609.06
2023-04-17T17:00:01.252Z,98612.50
2023-04-17T17:02:27.654Z,98613.00
2023-04-17T17:04:54.066Z,98615.72
2023-04-17T17:07:20.358Z,98616.84
2023-04-17T17:09:46.886Z,98620.97
2023-04-17T17:12:13.238Z,98631.50
2023-04-17T17:14:39.528Z,98622.28
2023-04-17T17:17:05.835Z,98631.78
2023-04-17T17:19:32.112Z,98628.72
2023-04-17T17:21:58.384Z,98626.25
2023-04-17T17:24:24.836Z,98644.28
2023-04-17T17:26:51.214Z,98633.22
2023-04-17T17:29:17.558Z,98633.78
2023-04-17T17:31:43.978Z,98640.97
2023-04-17T17:34:25.544Z,98640.16
2023-04-17T17:36:53.295Z,98636.47
2023-04-17T17:39:19.688Z,98644.81
2023-04-17T17:41:47.398Z,98642.56
2023-04-17T17:44:14.529Z,98640.13
2023-04-17T17:46:41.091Z,98649.31
2023-04-17T17:49:07.379Z,98644.00
2023-04-17T17:51:33.691Z,98641.91
2023-04-17T17:53:59.987Z,98648.66
2023-04-17T17:56:26.294Z,98659.09
2023-04-17T17:58:52.688Z,98658.22
2023-04-17T18:01:19.223Z,98655.56
2023-04-17T18:03:48.028Z,98651.84
2023-04-17T18:06:15.774Z,98654.91
2023-04-17T18:08:42.095Z,98658.19
2023-04-17T18:11:08.399Z,98659.22
2023-04-17T18:13:34.761Z,98667.19
2023-04-17T18:16:03.783Z,98664.56
2023-04-17T18:18:30.174Z,98667.59
2023-04-17T18:20:56.464Z,98676.41
2023-04-17T18:23:22.788Z,98675.72
2023-04-17T18:26:02.689Z,98680.84
2023-04-17T18:28:29.415Z,98685.38
2023-04-17T18:30:55.793Z,98682.69
2023-04-17T18:33:22.281Z,98680.41
2023-04-17T18:35:48.729Z,98685.72
2023-04-17T18:38:15.053Z,98681.59
2023-04-17T18:40:41.385Z,98691.66
2023-04-17T18:43:07.770Z,98685.28
2023-04-17T18:45:34.231Z,98692.47
2023-04-17T18:48:00.576Z,98695.13
2023-04-17T18:50:26.975Z,98691.22
2023-04-17T18:52:53.411Z,98690.59
2023-04-17T18:55:19.907Z,98694.75
2023-04-17T18:57:46.179Z,98695.72
2023-04-17T19:00:12.837Z,98696.25
2023-04-17T19:02:39.190Z,98699.50
2023-04-17T19:05:06.545Z,98701.13
2023-04-17T19:07:32.990Z,98698.88
2023-04-17T19:09:59.296Z,98701.78
2023-04-17T19:12:25.665Z,98712.63
2023-04-17T19:14:52.041Z,98709.75
2023-04-17T19:17:18.555Z,98708.31
2023-04-17T19:19:44.897Z,98720.38
2023-04-17T19:22:11.165Z,98710.13
2023-04-17T19:24:37.679Z,98703.97
2023-04-17T19:27:04.186Z,98710.75
2023-04-17T19:29:30.468Z,98711.16
2023-04-17T19:31:57.023Z,98712.38
2023-04-17T19:34:23.446Z,98710.44
2023-04-17T19:36:49.888Z,98710.44
2023-04-17T19:39:16.315Z,98711.66
2023-04-17T19:41:42.766Z,98709.38
2023-04-17T19:44:09.064Z,98710.00
2023-04-17T19:46:35.346Z,98704.25
2023-04-17T19:49:01.654Z,98709.38
2023-04-17T19:51:27.966Z,98702.16
2023-04-17T19:53:54.247Z,98713.81
2023-04-17T19:56:20.573Z,98708.31
2023-04-17T19:58:46.963Z,98705.78
2023-04-17T20:01:13.295Z,98706.97
2023-04-17T20:03:39.777Z,98703.94
2023-04-17T20:06:06.386Z,98715.03
2023-04-17T20:08:32.749Z,98714.22
2023-04-17T20:10:59.598Z,98700.44
2023-04-17T20:13:25.893Z,98707.81
2023-04-17T20:15:52.258Z,98705.59
2023-04-17T20:18:18.554Z,98705.41
2023-04-17T20:20:45.064Z,98697.44
2023-04-17T20:23:11.336Z,98691.47
2023-04-17T20:25:37.645Z,98700.09
2023-04-17T20:28:04.060Z,98693.94
2023-04-17T20:30:30.603Z,98697.78
2023-04-17T20:32:57.280Z,98699.91
2023-04-17T20:35:23.708Z,98697.25
2023-04-17T20:37:50.431Z,98696.63
2023-04-17T20:40:17.138Z,98690.81
2023-04-17T20:42:44.205Z,98700.84
2023-04-17T20:45:11.383Z,98700.84
2023-04-17T20:47:46.196Z,98700.84
2023-04-17T20:50:21.989Z,98697.63
2023-04-17T20:52:48.419Z,98696.22
2023-04-17T20:55:14.735Z,98699.94
2023-04-17T20:57:41.056Z,98690.56
2023-04-17T21:00:07.907Z,98692.63
2023-04-17T21:02:34.427Z,98698.53
2023-04-17T21:05:00.797Z,98694.03
2023-04-17T21:07:27.159Z,98695.84
2023-04-17T21:09:53.478Z,98691.97
2023-04-17T21:12:19.776Z,98689.06
2023-04-17T21:14:46.105Z,98687.81
2023-04-17T21:17:12.493Z,98695.13
2023-04-17T21:19:38.831Z,98685.28
2023-04-17T21:22:05.246Z,98679.50
2023-04-17T21:24:31.672Z,98679.75
2023-04-17T21:26:58.059Z,98687.34
2023-04-17T21:29:25.657Z,98681.94
2023-04-17T21:31:52.002Z,98682.94
2023-04-17T21:34:18.339Z,98685.19
2023-04-17T21:36:44.777Z,98682.91
2023-04-17T21:39:11.122Z,98685.19
2023-04-17T21:41:37.687Z,98679.34
2023-04-17T21:44:03.965Z,98679.91
2023-04-17T21:46:30.406Z,98688.81
2023-04-17T21:48:56.852Z,98686.25
2023-04-17T21:51:23.506Z,98689.69
2023-04-17T21:53:49.821Z,98687.03
2023-04-17T21:56:16.172Z,98690.44
2023-04-17T21:58:42.548Z,98693.66
2023-04-17T22:01:08.924Z,98691.00
2023-04-17T22:03:35.317Z,98692.66
2023-04-17T22:06:01.599Z,98690.06
2023-04-17T22:08:27.899Z,98688.03
2023-04-17T22:10:54.205Z,98689.50
2023-04-17T22:13:20.552Z,98685.81
2023-04-17T22:15:48.328Z,98686.97
2023-04-17T22:18:15.147Z,98683.69
2023-04-17T22:20:41.404Z,98681.47
2023-04-17T22:23:07.803Z,98683.09
2023-04-17T22:25:34.136Z,98688.47
2023-04-17T22:28:00.414Z,98680.63
2023-04-17T22:30:26.742Z,98686.97
2023-04-17T22:32:53.052Z,98683.34
2023-04-17T22:35:19.485Z,98683.34
2023-04-17T22:37:45.787Z,98677.41
2023-04-17T22:40:12.692Z,98682.03
2023-04-17T22:42:39.102Z,98687.16
2023-04-17T22:45:05.912Z,98683.88
2023-04-17T22:47:32.247Z,98683.50
2023-04-17T22:49:58.569Z,98677.91
2023-04-17T22:52:24.845Z,98684.41
2023-04-17T22:54:51.116Z,98685.81
2023-04-17T22:57:17.420Z,98683.19
2023-04-17T22:59:43.710Z,98686.69
2023-04-17T23:02:10.071Z,98683.38
2023-04-17T23:04:36.629Z,98678.28
2023-04-17T23:07:03.028Z,98685.56
2023-04-17T23:09:29.321Z,98689.16
2023-04-17T23:11:55.608Z,98683.78
2023-04-17T23:14:21.970Z,98689.84
2023-04-17T23:16:48.276Z,98686.38
2023-04-17T23:19:14.668Z,98688.00
2023-04-17T23:21:40.984Z,98685.81
2023-04-17T23:24:07.413Z,98684.16
2023-04-17T23:26:33.720Z,98686.00
2023-04-17T23:29:00.027Z,98682.69
2023-04-17T23:31:26.382Z,98684.34
2023-04-17T23:33:52.727Z,98684.16
2023-04-17T23:36:19.012Z,98681.75
2023-04-17T23:38:45.405Z,98681.38
2023-04-17T23:41:11.729Z,98678.53
2023-04-17T23:43:38.024Z,98677.91
2023-04-17T23:46:04.345Z,98669.13
2023-04-17T23:48:30.764Z,98672.06
2023-04-17T23:50:57.140Z,98674.00
2023-04-17T23:53:23.429Z,98673.81
2023-04-17T23:55:49.750Z,98677.84
2023-04-17T23:58:16.054Z,98677.41
